Time;durP1;ratioP1;P1;durP2;ratioP2;P2;SDS_P1;SDS_P2;PMS_P1;PMS_P2;Temp;Humidity;BMP_temperature;BMP_pressure;BME280_temperature;BME280_humidity;BME280_pressure;Samples;Min_cycle;Max_cycle;Signal;HPM_P1;HPM_P2
2023/07/14 00:01:45;;;;;;;7.20;3.43;;;17.50;96.00;;;17.21;68.99;101188.09;5009671;28;20235;-75
2023/07/14 00:04:17;;;;;;;4.47;3.13;;;17.40;95.90;;;17.15;68.49;101192.44;5009395;28;20688;-75
2023/07/14 00:06:47;;;;;;;5.33;3.13;;;17.40;95.90;;;17.13;69.23;101183.66;5010094;28;20218;-75
2023/07/14 00:09:25;;;;;;;3.43;3.10;;;17.30;96.00;;;17.11;68.76;101184.88;5009090;28;20435;-75
2023/07/14 00:11:54;;;;;;;7.33;3.27;;;17.30;96.10;;;17.10;68.85;101183.19;5009695;28;20211;-75
2023/07/14 00:14:22;;;;;;;4.60;3.47;;;17.30;96.10;;;17.06;69.14;101180.03;5023235;28;20233;-75
2023/07/14 00:16:50;;;;;;;7.27;4.13;;;17.20;96.20;;;17.06;69.86;101187.31;5029386;28;20310;-75
2023/07/14 00:19:21;;;;;;;6.33;3.90;;;17.20;96.40;;;17.00;70.68;101179.97;5029101;28;20608;-75
2023/07/14 00:21:49;;;;;;;5.93;3.67;;;17.20;96.60;;;17.01;69.49;101177.06;5010945;28;20622;-75
2023/07/14 00:24:21;;;;;;;5.17;4.03;;;17.20;96.40;;;16.94;70.27;101176.16;5008944;28;20199;-75
2023/07/14 00:26:55;;;;;;;5.07;3.87;;;17.10;96.70;;;16.92;70.64;101172.78;5009690;28;20246;-75
2023/07/14 00:29:38;;;;;;;6.43;3.90;;;17.10;96.80;;;16.83;70.71;101171.25;5009311;28;20667;-75
2023/07/14 00:32:18;;;;;;;5.63;4.00;;;17.10;96.80;;;16.85;70.73;101179.19;5009651;28;20217;-75
2023/07/14 00:34:48;;;;;;;5.90;3.57;;;17.00;97.10;;;16.78;71.15;101176.38;5009333;28;20294;-75
2023/07/14 00:37:16;;;;;;;5.93;4.20;;;17.00;96.90;;;16.71;71.60;101184.41;5009627;28;20241;-75
2023/07/14 00:39:45;;;;;;;4.47;3.60;;;16.90;97.10;;;16.72;70.81;101177.97;5008928;28;20235;-75
2023/07/14 00:42:16;;;;;;;5.30;3.80;;;16.90;97.30;;;16.72;70.77;101177.13;5009581;28;20222;-75
2023/07/14 00:44:45;;;;;;;6.73;4.30;;;16.90;97.10;;;16.67;71.63;101180.44;5009465;28;20212;-75
2023/07/14 00:47:28;;;;;;;4.10;3.70;;;16.80;97.50;;;16.67;71.48;101175.03;5012944;28;20223;-75
2023/07/14 00:50:01;;;;;;;5.70;3.53;;;16.90;97.60;;;16.68;71.42;101175.84;5029281;28;20241;-75
2023/07/14 00:52:35;;;;;;;5.77;3.30;;;16.90;97.60;;;16.70;70.95;101171.09;5028983;28;20257;-75
2023/07/14 00:55:31;;;;;;;8.03;3.97;;;16.90;97.30;;;16.70;70.89;101168.41;5029267;28;20206;-75
2023/07/14 00:58:00;;;;;;;5.50;3.60;;;16.90;97.20;;;16.67;70.17;101177.72;5029212;28;20302;-75
2023/07/14 01:00:31;;;;;;;5.33;3.87;;;16.90;97.20;;;16.58;71.53;101178.84;5028859;28;20349;-75
2023/07/14 01:03:03;;;;;;;6.13;4.10;;;16.80;97.30;;;16.66;69.91;101178.75;5029136;28;20249;-74
2023/07/14 01:05:34;;;;;;;3.80;3.20;;;16.90;97.10;;;16.66;70.87;101177.91;5029137;28;20234;-74
2023/07/14 01:08:03;;;;;;;4.43;3.77;;;16.90;97.00;;;16.65;70.55;101170.81;5028846;28;20230;-75
2023/07/14 01:10:31;;;;;;;5.80;3.63;;;16.90;96.90;;;16.65;70.66;101168.94;5028773;28;20317;-75
2023/07/14 01:13:06;;;;;;;4.20;3.20;;;16.90;96.90;;;16.65;70.25;101171.66;5028971;28;20202;-75
2023/07/14 01:15:40;;;;;;;5.00;4.00;;;16.90;96.80;;;16.65;70.29;101170.81;5029007;28;20213;-75
2023/07/14 01:18:11;;;;;;;8.57;4.33;;;16.90;96.80;;;16.59;70.54;101167.00;5028786;28;20206;-75
2023/07/14 01:20:41;;;;;;;6.30;4.10;;;16.80;96.90;;;16.53;70.24;101170.44;5019944;28;20239;-75
2023/07/14 01:23:31;;;;;;;5.07;3.50;;;16.80;96.80;;;16.48;70.41;101156.66;5011329;28;20203;-75
2023/07/14 01:26:19;;;;;;;4.80;3.83;;;16.70;97.00;;;16.49;70.80;101160.19;5012504;28;20231;-75
2023/07/14 01:28:49;;;;;;;4.93;3.60;;;16.60;97.00;;;16.43;70.19;101156.38;5012644;28;20213;-75
2023/07/14 01:31:23;;;;;;;5.23;3.80;;;16.60;97.30;;;16.41;70.41;101161.13;5012382;28;20322;-75
2023/07/14 01:33:52;;;;;;;4.87;3.40;;;16.60;97.10;;;16.44;70.69;101155.34;5012345;28;20782;-75
2023/07/14 01:36:24;;;;;;;6.23;3.77;;;16.70;97.20;;;16.37;71.07;101151.72;5012478;28;20302;-75
2023/07/14 01:38:54;;;;;;;6.30;3.80;;;16.60;97.30;;;16.36;71.43;101154.63;4992676;28;20235;-75
2023/07/14 01:41:23;;;;;;;6.30;3.93;;;16.50;97.30;;;16.34;70.87;101152.09;4992121;28;20240;-74
2023/07/14 01:43:54;;;;;;;6.27;3.83;;;16.60;97.10;;;16.35;70.68;101153.78;4992978;28;20306;-75
2023/07/14 01:46:24;;;;;;;4.43;3.73;;;16.60;97.20;;;16.30;70.97;101161.59;4992411;28;20255;-75
2023/07/14 01:49:30;;;;;;;6.03;3.87;;;16.50;97.20;;;16.30;70.87;101160.78;5027023;28;20211;-75
2023/07/14 01:52:02;;;;;;;5.73;4.07;;;16.50;97.50;;;16.22;70.98;101154.44;5031946;28;20206;-75
2023/07/14 01:54:38;;;;;;;3.90;3.33;;;16.40;97.30;;;16.24;71.15;101151.53;5031939;28;20210;-75
2023/07/14 01:57:13;;;;;;;8.20;4.27;;;16.40;97.50;;;16.20;71.27;101151.06;5031640;28;20225;-75
2023/07/14 01:59:48;;;;;;;4.57;3.80;;;16.40;97.50;;;16.19;71.24;101153.97;5031156;28;20260;-75
2023/07/14 02:02:23;;;;;;;6.00;4.20;;;16.40;97.60;;;16.09;71.45;101154.25;5032029;28;20210;-75
2023/07/14 02:04:52;;;;;;;8.30;4.10;;;16.30;97.50;;;16.07;72.07;101156.28;5031741;28;20210;-75
2023/07/14 02:07:21;;;;;;;5.53;3.90;;;16.30;97.60;;;16.01;71.88;101167.84;5031599;28;20302;-75
2023/07/14 02:09:50;;;;;;;6.67;4.17;;;16.30;97.70;;;15.98;70.76;101161.97;5031357;28;20258;-75
2023/07/14 02:12:28;;;;;;;5.77;4.17;;;16.30;97.50;;;16.05;71.27;101154.81;5031228;28;20752;-75
2023/07/14 02:15:03;;;;;;;4.70;3.67;;;16.30;97.60;;;16.04;71.34;101162.06;5031343;28;20779;-75
2023/07/14 02:17:35;;;;;;;4.53;4.00;;;16.30;97.60;;;15.99;71.13;101163.66;5031469;28;20213;-75
2023/07/14 02:20:14;;;;;;;6.10;3.63;;;16.20;97.70;;;15.95;71.93;101162.34;5029536;28;20219;-75
2023/07/14 02:22:43;;;;;;;7.73;4.30;;;16.20;97.80;;;15.95;71.26;101162.34;5011179;28;20690;-75
2023/07/14 02:25:16;;;;;;;5.00;3.97;;;16.20;97.90;;;15.95;71.46;101156.94;5011219;28;20204;-75
2023/07/14 02:27:46;;;;;;;6.27;4.07;;;16.20;97.90;;;15.96;72.02;101164.03;5011252;28;20294;-75
2023/07/14 02:30:19;;;;;;;7.30;4.40;;;16.30;97.80;;;15.94;72.21;101166.06;5011054;28;20315;-76
2023/07/14 02:32:54;;;;;;;4.80;4.10;;;16.20;98.00;;;15.81;73.24;101165.88;5010594;28;20203;-75
2023/07/14 02:35:33;;;;;;;4.50;4.03;;;16.00;98.60;;;15.80;73.17;101166.88;5011524;28;20208;-75
2023/07/14 02:38:04;;;;;;;6.03;3.83;;;16.00;99.10;;;15.86;72.14;101166.13;5011282;28;20204;-74
2023/07/14 02:40:38;;;;;;;7.57;4.40;;;16.10;98.40;;;15.82;72.58;101167.56;5018618;28;20238;-76
2023/07/14 02:43:09;;;;;;;4.57;4.10;;;16.10;98.10;;;15.82;72.16;101171.09;5030880;28;20217;-75
2023/07/14 02:45:46;;;;;;;6.17;4.30;;;16.10;98.40;;;15.79;72.43;101165.22;5030636;28;20225;-75
2023/07/14 02:48:21;;;;;;;5.77;3.93;;;16.00;98.30;;;15.78;72.48;101160.84;5017708;28;20701;-75
2023/07/14 02:50:50;;;;;;;6.67;4.00;;;16.00;98.20;;;15.75;71.73;101166.59;5010781;28;20761;-75
2023/07/14 02:53:18;;;;;;;7.43;3.80;;;16.00;98.10;;;15.80;72.48;101169.56;5010686;28;20621;-75
2023/07/14 02:55:46;;;;;;;6.00;4.27;;;16.00;98.40;;;15.80;72.75;101172.28;5011271;28;20211;-76
2023/07/14 02:58:14;;;;;;;6.17;4.50;;;16.10;98.50;;;15.72;72.54;101174.03;5011033;28;20261;-75
2023/07/14 03:00:44;;;;;;;7.47;4.40;;;16.00;98.10;;;15.69;73.36;101168.16;5010938;28;20238;-75
2023/07/14 03:03:12;;;;;;;9.03;4.70;;;16.00;98.50;;;15.63;72.46;101169.75;5010997;28;20242;-75
2023/07/14 03:05:42;;;;;;;5.60;4.13;;;15.90;98.50;;;15.58;72.95;101174.84;5010794;28;20302;-75
2023/07/14 03:08:16;;;;;;;4.73;4.33;;;15.80;98.60;;;15.58;72.64;101174.84;5010886;28;20208;-75
2023/07/14 03:10:46;;;;;;;4.93;4.43;;;15.90;98.70;;;15.58;72.85;101166.72;5010532;28;20258;-75
2023/07/14 03:13:17;;;;;;;9.37;4.20;;;15.90;98.70;;;15.58;73.58;101177.53;5010834;28;20242;-75
2023/07/14 03:15:46;;;;;;;5.40;4.40;;;15.80;98.80;;;15.56;72.71;101168.78;5010473;28;20228;-75
2023/07/14 03:18:15;;;;;;;5.37;4.47;;;15.80;98.80;;;15.54;72.98;101168.16;5010420;28;20678;-75
2023/07/14 03:20:44;;;;;;;5.17;4.37;;;15.80;98.80;;;15.56;73.37;101170.66;5010300;28;20227;-76
2023/07/14 03:23:12;;;;;;;7.93;4.67;;;15.80;98.80;;;15.59;72.82;101168.41;5010323;28;20266;-75
2023/07/14 03:25:41;;;;;;;4.77;4.33;;;15.80;98.80;;;15.54;72.58;101164.59;5010259;28;20286;-75
2023/07/14 03:28:09;;;;;;;6.40;4.20;;;15.80;98.70;;;15.53;73.30;101162.91;5010310;28;20249;-76
2023/07/14 03:30:40;;;;;;;5.23;4.47;;;15.80;98.70;;;15.53;73.24;101163.75;5010005;28;20278;-75
2023/07/14 03:33:10;;;;;;;6.90;4.40;;;15.80;98.70;;;15.50;73.17;101161.44;5010313;28;20439;-75
2023/07/14 03:35:40;;;;;;;7.20;4.17;;;15.80;98.80;;;15.49;73.45;101159.75;5010342;28;20231;-76
2023/07/14 03:38:09;;;;;;;11.23;5.40;;;15.70;98.90;;;15.52;73.26;101162.06;5010509;28;20346;-75
2023/07/14 03:40:37;;;;;;;5.60;4.50;;;15.80;99.00;;;15.55;73.39;101156.31;5009066;28;20239;-76
2023/07/14 03:43:06;;;;;;;6.93;4.67;;;15.90;98.80;;;15.53;73.62;101152.13;5010055;28;20258;-76
2023/07/14 03:45:36;;;;;;;8.00;4.77;;;15.80;99.20;;;15.51;73.38;101155.03;5009553;28;20211;-75
2023/07/14 03:48:05;;;;;;;7.07;4.43;;;15.80;99.10;;;15.41;73.97;101153.56;5020659;28;20217;-76
2023/07/14 03:50:37;;;;;;;7.53;4.67;;;15.60;99.30;;;15.32;74.02;101160.88;5029424;28;20309;-76
2023/07/14 03:53:06;;;;;;;5.73;4.73;;;15.60;99.40;;;15.38;73.97;101153.91;5029559;28;20875;-75
2023/07/14 03:55:34;;;;;;;5.63;4.53;;;15.60;99.40;;;15.36;74.16;101159.50;5029840;28;20281;-76
2023/07/14 03:58:02;;;;;;;8.30;4.63;;;15.60;99.60;;;15.33;74.11;101165.25;5029783;28;20217;-76
2023/07/14 04:00:32;;;;;;;12.43;5.07;;;15.60;99.20;;;15.32;74.28;101160.03;5029281;28;20724;-76
2023/07/14 04:03:03;;;;;;;9.80;4.90;;;15.70;99.40;;;15.25;75.08;101165.31;5029425;28;20210;-75
2023/07/14 04:05:31;;;;;;;8.97;5.47;;;15.50;99.90;;;15.16;75.54;101155.59;5029601;28;20253;-76
2023/07/14 04:08:03;;;;;;;8.83;4.50;;;15.40;99.90;;;15.18;75.99;101158.94;5021581;28;20206;-75
2023/07/14 04:10:33;;;;;;;6.73;4.70;;;15.40;99.90;;;15.18;76.19;101153.56;5009777;28;20330;-76
2023/07/14 04:13:01;;;;;;;8.83;5.03;;;15.40;99.90;;;15.18;76.57;101158.94;5009794;28;20241;-76
2023/07/14 04:15:29;;;;;;;7.73;4.97;;;15.50;99.90;;;15.13;76.07;101155.97;5009417;28;20855;-76
2023/07/14 04:18:00;;;;;;;10.53;5.10;;;15.40;99.90;;;15.11;76.32;101153.44;5009757;28;20873;-75
2023/07/14 04:20:29;;;;;;;11.67;5.50;;;15.40;99.90;;;15.12;76.20;101154.28;5009047;28;20219;-76
2023/07/14 04:22:58;;;;;;;10.43;4.90;;;15.40;99.90;;;15.04;76.90;101152.47;5009316;28;20679;-75
2023/07/14 04:25:30;;;;;;;7.67;4.87;;;15.30;99.90;;;15.08;77.28;101155.66;5009093;28;20287;-75
2023/07/14 04:27:59;;;;;;;9.90;5.30;;;15.40;99.90;;;15.07;76.83;101159.34;5009249;28;20207;-75
2023/07/14 04:30:28;;;;;;;8.30;5.00;;;15.70;99.90;;;15.04;77.45;101163.25;5009223;28;20310;-75
2023/07/14 04:32:57;;;;;;;9.27;5.43;;;15.40;99.90;;;15.09;77.18;101165.44;5009424;28;20215;-74
2023/07/14 04:35:26;;;;;;;9.37;5.47;;;15.40;99.90;;;15.09;77.62;101157.34;5009653;28;20203;-76
2023/07/14 04:37:54;;;;;;;6.30;4.73;;;15.40;99.90;;;15.11;77.26;101166.06;5009488;28;20319;-74
2023/07/14 04:40:22;;;;;;;8.57;5.43;;;15.50;99.90;;;15.12;77.38;101174.00;5015465;28;20266;-76
2023/07/14 04:43:04;;;;;;;8.30;4.73;;;15.40;99.90;;;15.14;77.50;101174.66;5029037;28;20228;-75
2023/07/14 04:45:37;;;;;;;11.73;5.10;;;15.40;99.90;;;15.11;77.18;101171.47;5029154;28;20234;-76
2023/07/14 04:48:07;;;;;;;7.37;5.23;;;15.40;99.90;;;15.13;76.94;101166.75;5018270;28;20229;-76
2023/07/14 04:50:37;;;;;;;7.70;5.10;;;15.50;99.90;;;15.16;77.72;101167.25;5008982;28;20227;-75
2023/07/14 04:53:05;;;;;;;7.87;5.37;;;15.50;99.90;;;15.17;77.47;101173.47;5009134;28;20246;-74
2023/07/14 04:55:37;;;;;;;6.97;5.40;;;15.50;99.90;;;15.17;77.17;101174.28;5008661;28;20299;-75
2023/07/14 04:58:07;;;;;;;9.80;5.33;;;15.50;99.90;;;15.18;77.56;101175.13;5013006;28;20306;-76
2023/07/14 05:00:38;;;;;;;9.87;5.40;;;15.50;99.90;;;15.20;77.39;101173.13;5012481;28;20228;-75
2023/07/14 05:03:08;;;;;;;10.13;4.97;;;15.60;99.90;;;15.18;77.70;101165.19;5012495;28;20310;-74
2023/07/14 05:05:36;;;;;;;8.33;5.20;;;15.60;99.90;;;15.22;77.59;101169.22;5012743;28;20295;-75
2023/07/14 05:08:08;;;;;;;8.23;4.97;;;15.60;99.90;;;15.24;78.22;101169.84;5012326;28;20211;-75
2023/07/14 05:10:42;;;;;;;6.73;4.80;;;15.60;99.90;;;15.26;78.03;101167.00;5012797;28;20761;-75
2023/07/14 05:13:15;;;;;;;14.57;5.37;;;15.60;99.90;;;15.28;77.70;101167.63;5013161;28;20219;-76
2023/07/14 05:15:54;;;;;;;14.53;5.50;;;15.80;99.90;;;15.31;78.07;101159.19;5013150;28;20215;-74
2023/07/14 05:18:25;;;;;;;12.70;5.20;;;15.70;99.90;;;15.33;77.41;101157.16;5012798;28;20215;-75
2023/07/14 05:20:58;;;;;;;6.67;4.67;;;15.70;99.90;;;15.35;78.23;101154.25;5019735;28;20301;-76
2023/07/14 05:23:27;;;;;;;11.10;5.67;;;15.70;99.90;;;15.32;77.92;101150.06;5013077;28;20215;-75
2023/07/14 05:26:00;;;;;;;9.10;6.13;;;15.80;99.90;;;15.28;78.25;101158.69;5012157;28;20759;-75
2023/07/14 05:28:32;;;;;;;9.07;5.20;;;15.70;99.90;;;15.33;78.13;101164.41;5012343;28;20223;-76
2023/07/14 05:31:05;;;;;;;12.63;5.63;;;15.70;99.90;;;15.37;78.57;101157.63;5012635;28;20238;-76
2023/07/14 05:33:34;;;;;;;8.63;5.30;;;15.70;99.90;;;15.39;78.87;101161.81;5012949;28;20234;-76
2023/07/14 05:36:02;;;;;;;7.60;4.73;;;16.20;99.90;;;15.44;78.28;101155.91;5012557;28;20302;-75
2023/07/14 05:38:30;;;;;;;9.00;5.50;;;15.90;99.90;;;15.50;78.56;101153.34;5012471;28;20290;-75
2023/07/14 05:41:04;;;;;;;9.10;5.40;;;15.90;99.90;;;15.54;77.79;101161.91;5029736;23;20674;-73
2023/07/14 05:43:38;;;;;;;8.10;5.30;;;16.00;99.90;;;15.60;78.31;101158.47;5079753;28;20676;-71
2023/07/14 05:46:10;;;;;;;9.10;5.70;;;16.10;99.90;;;15.63;77.69;101158.94;5078811;28;20225;-72
2023/07/14 05:48:43;;;;;;;12.03;5.13;;;16.10;99.90;;;15.71;76.14;101156.19;5075992;28;20194;-73
2023/07/14 05:51:14;;;;;;;7.10;4.70;;;16.20;99.90;;;15.81;75.80;101161.31;5075987;28;20273;-73
2023/07/14 05:53:46;;;;;;;9.60;5.30;;;16.30;99.90;;;15.86;75.59;101161.56;5075564;28;20697;-72
2023/07/14 05:56:18;;;;;;;9.23;4.70;;;16.30;99.90;;;15.89;75.29;101157.69;5075830;28;20257;-72
2023/07/14 05:58:51;;;;;;;9.97;5.63;;;16.40;99.90;;;15.91;74.94;101166.44;5075439;28;20673;-72
2023/07/14 06:01:23;;;;;;;8.90;5.30;;;16.40;99.90;;;15.96;75.99;101164.03;5076084;28;20225;-72
2023/07/14 06:03:55;;;;;;;5.83;4.60;;;16.50;99.90;;;16.00;75.64;101152.66;5075355;28;20692;-72
2023/07/14 06:06:27;;;;;;;9.10;5.00;;;16.50;99.90;;;16.05;76.47;101161.06;5075537;28;20252;-72
2023/07/14 06:08:59;;;;;;;7.63;4.53;;;16.60;99.90;;;16.09;74.95;101154.25;5074805;28;20240;-72
2023/07/14 06:11:32;;;;;;;9.50;5.30;;;16.60;99.90;;;16.19;74.95;101160.22;5076079;28;20308;-72
2023/07/14 06:14:05;;;;;;;9.40;5.10;;;16.70;99.90;;;16.29;73.33;101157.22;5075504;28;20224;-72
2023/07/14 06:16:38;;;;;;;8.07;4.87;;;16.80;99.40;;;16.34;74.44;101146.69;5075438;28;20263;-72
2023/07/14 06:19:09;;;;;;;6.17;4.23;;;16.80;99.40;;;16.36;74.87;101143.81;5075370;28;20542;-72
2023/07/14 06:21:41;;;;;;;9.77;5.73;;;16.90;99.70;;;16.39;73.91;101144.28;5075301;28;20224;-72
2023/07/14 06:24:14;;;;;;;8.53;5.17;;;16.90;99.10;;;16.40;73.99;101140.56;5075313;28;20229;-73
2023/07/14 06:26:45;;;;;;;8.40;4.87;;;16.90;99.50;;;16.45;74.43;101139.97;5074993;28;20263;-72
2023/07/14 06:29:19;;;;;;;7.97;5.37;;;17.00;99.60;;;16.53;74.42;101124.50;5075161;28;20191;-72
2023/07/14 06:31:51;;;;;;;5.57;4.90;;;17.10;99.30;;;16.56;73.57;101129.56;5075158;28;20260;-73
2023/07/14 06:34:23;;;;;;;8.50;5.67;;;17.10;99.00;;;16.61;73.48;101124.41;5074733;28;20665;-73
2023/07/14 06:36:55;;;;;;;6.87;4.90;;;17.20;99.10;;;16.69;74.01;101128.84;5074659;28;20253;-73
2023/07/14 06:39:26;;;;;;;8.13;5.40;;;17.20;98.90;;;16.79;74.09;101128.53;5075029;28;20612;-73
2023/07/14 06:41:58;;;;;;;10.63;5.67;;;17.30;99.40;;;16.80;74.26;101124.81;5074651;28;20213;-72
2023/07/14 06:44:32;;;;;;;5.40;4.57;;;17.40;99.10;;;16.86;74.53;101129.44;5074820;28;20197;-72
2023/07/14 06:47:04;;;;;;;41.03;7.63;;;17.40;99.40;;;16.98;72.91;101128.78;5074772;28;20280;-72
2023/07/14 06:49:36;;;;;;;9.97;5.37;;;17.50;99.00;;;17.05;74.08;101128.84;5074444;28;20563;-72
2023/07/14 06:52:12;;;;;;;11.13;5.13;;;17.60;99.80;;;17.06;74.21;101131.34;5074720;28;20190;-72
2023/07/14 06:54:45;;;;;;;7.53;5.27;;;17.60;99.20;;;17.17;72.87;101135.41;5074559;28;20185;-73
2023/07/14 06:57:17;;;;;;;8.23;4.83;;;17.70;98.80;;;17.17;74.75;101130.81;5074691;28;20229;-73
2023/07/14 06:59:50;;;;;;;8.83;4.60;;;17.70;99.40;;;17.19;74.57;101130.66;5074245;28;20225;-73
2023/07/14 07:02:22;;;;;;;9.87;4.60;;;17.80;99.60;;;17.27;72.65;101133.19;5074201;28;20639;-73
2023/07/14 07:04:54;;;;;;;9.63;4.90;;;17.80;99.10;;;17.30;72.43;101138.22;5074252;28;20202;-73
2023/07/14 07:07:26;;;;;;;6.17;4.33;;;17.90;98.40;;;17.31;73.13;101131.78;5074466;28;20254;-73
2023/07/14 07:09:58;;;;;;;7.20;5.07;;;17.90;99.00;;;17.35;74.17;101130.38;5074413;28;20269;-73
2023/07/14 07:12:30;;;;;;;8.57;5.07;;;17.90;99.20;;;17.40;73.15;101127.91;5074314;28;20277;-73
2023/07/14 07:15:04;;;;;;;10.77;5.70;;;18.00;98.90;;;17.48;70.94;101135.88;5073908;28;20236;-73
2023/07/14 07:17:38;;;;;;;10.53;5.00;;;18.00;98.00;;;17.53;71.96;101132.59;5074230;28;20217;-73
2023/07/14 07:20:12;;;;;;;7.00;4.93;;;18.10;97.90;;;17.58;73.54;101131.00;5074209;28;20202;-73
2023/07/14 07:22:47;;;;;;;7.27;4.30;;;18.10;98.90;;;17.66;73.08;101132.75;5073754;28;20568;-74
2023/07/14 07:25:20;;;;;;;10.07;4.77;;;18.20;98.70;;;17.74;72.63;101129.88;5074476;28;20623;-72
2023/07/14 07:27:52;;;;;;;11.67;4.83;;;18.30;98.40;;;17.85;72.15;101139.31;5074112;28;20289;-73
2023/07/14 07:30:26;;;;;;;6.83;4.80;;;18.40;98.40;;;17.96;70.85;101133.34;5073748;28;20657;-73
2023/07/14 07:32:58;;;;;;;7.77;5.53;;;18.60;97.70;;;18.02;70.62;101121.72;5073688;28;20225;-73
2023/07/14 07:35:31;;;;;;;9.77;5.33;;;18.60;97.20;;;18.08;70.77;101131.78;5073905;28;20233;-73
2023/07/14 07:38:03;;;;;;;9.70;5.80;;;18.70;97.30;;;18.27;66.69;101130.19;5073883;28;20189;-73
2023/07/14 07:40:35;;;;;;;11.47;6.50;;;18.80;95.20;;;18.41;66.16;101131.94;5073929;28;20221;-73
2023/07/14 07:43:07;;;;;;;9.83;4.87;;;18.90;95.10;;;18.34;67.65;101122.94;5073437;28;20758;-73
2023/07/14 07:45:40;;;;;;;6.83;5.00;;;18.90;95.80;;;18.37;68.50;101119.81;5073404;28;20774;-72
2023/07/14 07:48:11;;;;;;;8.40;4.90;;;18.90;96.10;;;18.42;68.30;101123.63;5073796;28;20217;-72
2023/07/14 07:50:46;;;;;;;8.87;4.57;;;19.00;96.00;;;18.51;67.38;101117.00;5073785;28;20186;-73
2023/07/14 07:53:18;;;;;;;7.63;4.80;;;19.10;95.50;;;18.76;65.34;101116.47;5073706;28;20242;-73
2023/07/14 07:55:55;;;;;;;9.07;4.87;;;19.30;94.50;;;18.82;62.12;101115.63;5073313;28;20323;-73
2023/07/14 07:58:28;;;;;;;7.37;5.23;;;19.40;92.50;;;18.95;62.04;101115.66;5073345;28;20626;-72
2023/07/14 08:01:05;;;;;;;11.43;5.60;;;19.50;92.60;;;19.10;61.49;101111.72;5073384;28;20700;-73
2023/07/14 08:03:37;;;;;;;7.13;5.20;;;19.60;92.50;;;19.14;61.84;101106.72;5073513;28;20296;-73
2023/07/14 08:06:10;;;;;;;8.40;4.53;;;19.70;92.40;;;19.24;60.59;101108.00;5073518;28;20227;-74
2023/07/14 08:08:43;;;;;;;7.33;4.43;;;19.80;91.80;;;19.18;62.20;101108.81;5073589;28;20197;-72
2023/07/14 08:11:17;;;;;;;5.20;3.70;;;19.70;92.20;;;19.19;61.39;101107.75;5073495;28;20232;-72
2023/07/14 08:13:49;;;;;;;6.77;4.20;;;19.70;92.40;;;19.20;63.14;101100.47;5073188;28;20185;-73
2023/07/14 08:16:22;;;;;;;6.80;4.00;;;19.70;93.00;;;19.24;63.61;101099.00;5073465;28;20237;-73
2023/07/14 08:18:54;;;;;;;17.20;5.97;;;19.80;93.20;;;19.42;61.74;101101.94;5073451;28;20197;-64
2023/07/14 08:25:25;;;;;;;7.83;4.43;;;20.10;91.80;;;19.58;59.13;101101.53;5072868;28;20215;-64
2023/07/14 08:27:57;;;;;;;8.73;4.60;;;20.10;90.60;;;19.60;61.15;101102.16;5072874;28;20192;-64
2023/07/14 08:30:30;;;;;;;6.97;3.90;;;20.10;91.60;;;19.83;59.39;101106.31;5073389;28;20673;-74
2023/07/14 08:33:03;;;;;;;6.07;3.50;;;20.30;91.10;;;19.84;59.74;101102.53;5080349;28;20189;-74
2023/07/14 08:35:35;;;;;;;7.67;3.50;;;20.40;91.00;;;19.90;60.44;101101.72;5080141;28;20221;-74
2023/07/14 08:38:07;;;;;;;5.83;3.77;;;20.40;91.30;;;20.12;58.44;101100.38;5079432;28;20661;-74
2023/07/14 08:40:49;;;;;;;8.67;4.20;;;20.60;90.50;;;20.03;60.79;101096.22;5079368;28;20276;-74
2023/07/14 08:43:34;;;;;;;5.40;3.80;;;20.50;91.30;;;20.09;60.89;101100.81;5079548;28;20244;-74
2023/07/14 08:46:15;;;;;;;5.87;4.50;;;20.60;91.40;;;20.23;60.67;101086.97;5077504;28;20247;-74
2023/07/14 08:49:03;;;;;;;6.20;3.50;;;20.70;91.70;;;20.28;59.35;101093.66;5076962;28;20617;-74
2023/07/14 08:51:44;;;;;;;8.07;3.70;;;20.80;91.00;;;20.38;59.47;101099.47;5076960;28;20194;-74
2023/07/14 08:54:21;;;;;;;7.00;4.37;;;20.80;90.90;;;20.47;59.54;101096.31;5077254;28;20240;-75
2023/07/14 08:56:54;;;;;;;6.47;3.57;;;20.90;90.80;;;20.54;58.43;101083.50;5076742;28;20225;-75
2023/07/14 08:59:40;;;;;;;4.93;3.30;;;21.10;89.80;;;20.55;58.68;101087.03;5076794;28;20186;-74
2023/07/14 09:02:26;;;;;;;5.87;3.40;;;21.10;90.10;;;20.71;57.32;101083.84;5076405;28;20318;-74
2023/07/14 09:05:06;;;;;;;6.20;3.40;;;21.20;89.10;;;20.74;57.61;101088.84;5076428;28;20214;-75
2023/07/14 09:07:39;;;;;;;6.20;3.63;;;21.30;88.60;;;20.83;57.60;101083.97;5076571;28;20380;-74
2023/07/14 09:10:16;;;;;;;4.53;3.03;;;21.30;88.70;;;20.92;57.21;101082.66;5076489;28;20221;-74
2023/07/14 09:12:58;;;;;;;8.67;3.40;;;21.40;87.90;;;20.99;56.21;101076.13;5076539;28;20193;-74
2023/07/14 09:15:31;;;;;;;7.80;3.30;;;21.40;87.20;;;21.10;54.78;101078.16;5076072;28;20659;-74
2023/07/14 09:18:31;;;;;;;3.20;2.50;;;21.60;85.10;;;21.40;50.91;101086.53;5076107;28;20614;-75
2023/07/14 09:21:16;;;;;;;6.27;2.83;;;21.80;81.70;;;21.33;53.92;101083.00;5076355;28;20194;-75
2023/07/14 09:24:13;;;;;;;5.00;2.53;;;21.80;84.20;;;21.41;51.66;101073.72;5076163;28;20241;-75
2023/07/14 09:26:52;;;;;;;5.57;2.60;;;21.80;81.20;;;21.44;53.53;101067.84;5076046;28;20267;-73
2023/07/14 09:29:33;;;;;;;5.57;2.90;;;21.80;82.80;;;21.50;52.78;101072.38;5076131;28;20281;-74
2023/07/14 09:32:12;;;;;;;4.83;2.87;;;21.90;81.90;;;21.60;51.86;101075.44;5076137;28;20272;-73
2023/07/14 09:34:56;;;;;;;4.17;2.80;;;22.00;80.90;;;21.70;52.95;101078.47;5075671;28;20630;-74
2023/07/14 09:37:34;;;;;;;4.40;2.97;;;22.10;82.10;;;21.81;53.61;101076.91;5075980;28;20607;-74
2023/07/14 09:40:18;;;;;;;4.83;2.80;;;22.20;82.90;;;21.85;53.52;101067.22;5075935;28;20190;-73
2023/07/14 09:42:53;;;;;;;3.97;2.87;;;22.20;82.60;;;21.88;49.98;101064.88;5074337;28;20685;-73
2023/07/14 09:45:29;;;;;;;3.03;2.60;;;22.30;78.00;;;21.92;52.97;101054.38;5075435;28;20320;-74
2023/07/14 09:48:06;;;;;;;4.20;2.70;;;22.30;82.20;;;21.99;51.21;101057.84;5075875;28;20388;-74
2023/07/14 09:50:49;;;;;;;4.10;2.90;;;22.30;79.90;;;22.09;51.29;101050.78;5075538;28;20281;-74
2023/07/14 09:53:23;;;;;;;6.40;2.90;;;22.50;79.70;;;22.10;51.70;101051.63;5076499;28;20228;-74
2023/07/14 09:56:01;;;;;;;3.30;3.00;;;22.50;79.80;;;22.10;50.80;101046.19;5075621;28;20316;-74
2023/07/14 09:58:35;;;;;;;15.93;3.50;;;22.40;79.00;;;22.31;48.83;101053.06;5075616;28;20197;-74
2023/07/14 10:01:15;;;;;;;4.13;2.80;;;22.60;77.10;;;22.43;47.52;101043.84;5075249;28;20637;-72
2023/07/14 10:03:54;;;;;;;5.87;2.87;;;22.80;74.10;;;22.57;47.79;101039.88;5075511;28;20213;-72
2023/07/14 10:06:29;;;;;;;4.03;2.87;;;22.90;74.70;;;22.73;47.33;101042.00;5075383;28;20224;-73
2023/07/14 10:09:11;;;;;;;7.73;2.90;;;23.10;74.30;;;22.80;46.63;101036.44;5075425;28;20288;-73
2023/07/14 10:11:48;;;;;;;3.83;2.60;;;23.20;74.00;;;22.95;46.62;101027.78;5075313;28;20228;-73
2023/07/14 10:14:26;;;;;;;4.50;2.93;;;23.20;74.00;;;23.08;45.33;101028.41;5075314;28;20265;-73
2023/07/14 10:17:00;;;;;;;5.60;2.70;;;23.40;71.30;;;23.09;43.22;101029.25;5075212;28;20282;-73
2023/07/14 10:19:41;;;;;;;3.83;2.80;;;23.50;67.70;;;23.19;44.08;101019.41;5075232;28;20224;-73
2023/07/14 10:22:19;;;;;;;7.57;2.97;;;23.50;71.00;;;23.27;43.75;101012.75;5074889;28;20646;-73
2023/07/14 10:25:00;;;;;;;4.60;2.50;;;23.60;68.30;;;23.38;44.06;101006.47;5074957;28;20210;-73
2023/07/14 10:27:39;;;;;;;3.47;2.70;;;23.70;68.50;;;23.35;46.07;101006.97;5075107;28;20190;-73
2023/07/14 10:30:33;;;;;;;3.13;2.70;;;23.60;71.30;;;23.39;46.94;101008.13;5074705;28;20189;-73
2023/07/14 10:33:13;;;;;;;4.30;2.70;;;23.70;72.40;;;23.62;45.03;101004.59;5074615;28;20186;-73
2023/07/14 10:35:48;;;;;;;6.20;3.20;;;23.90;69.90;;;23.65;43.44;100991.28;5074922;28;20614;-74
2023/07/14 10:38:27;;;;;;;4.87;2.90;;;24.00;67.90;;;23.68;43.18;101001.72;5074517;28;20716;-74
2023/07/14 10:41:09;;;;;;;4.60;3.07;;;24.00;67.20;;;23.76;46.27;100996.97;5074342;28;20225;-74
2023/07/14 10:43:51;;;;;;;4.37;2.97;;;24.10;71.30;;;23.76;45.63;100999.69;5074703;28;20216;-74